createdAt,value
2022-09-28T00:01:14.771Z,93.97
2022-09-28T00:03:17.316Z,94.02
2022-09-28T00:05:19.941Z,94.40
2022-09-28T00:07:22.530Z,94.68
2022-09-28T00:09:25.087Z,94.68
2022-09-28T00:11:28.582Z,94.45
2022-09-28T00:13:32.368Z,94.58
2022-09-28T00:15:35.720Z,94.67
2022-09-28T00:17:38.262Z,94.73
2022-09-28T00:19:40.818Z,94.42
2022-09-28T00:21:43.393Z,94.62
2022-09-28T00:24:04.587Z,94.76
2022-09-28T00:26:07.283Z,94.62
2022-09-28T00:28:09.782Z,94.94
2022-09-28T00:30:13.008Z,94.53
2022-09-28T00:32:16.800Z,94.53
2022-09-28T00:34:20.857Z,94.28
2022-09-28T00:36:28.450Z,94.52
2022-09-28T00:38:31.049Z,94.56
2022-09-28T00:40:33.650Z,94.61
2022-09-28T00:42:36.190Z,94.34
2022-09-28T00:45:01.250Z,94.40
2022-09-28T00:47:21.654Z,94.77
2022-09-28T00:49:39.809Z,94.63
2022-09-28T00:51:45.454Z,94.26
2022-09-28T00:53:50.091Z,94.43
2022-09-28T00:55:57.492Z,94.46
2022-09-28T00:58:03.918Z,94.23
2022-09-28T01:00:07.524Z,94.85
2022-09-28T01:02:10.744Z,94.49
2022-09-28T01:04:13.419Z,94.45
2022-09-28T01:06:20.924Z,94.57
2022-09-28T01:08:25.167Z,94.74
2022-09-28T01:10:29.313Z,94.94
2022-09-28T01:12:31.868Z,95.05
2022-09-28T01:14:34.784Z,95.81
2022-09-28T01:16:43.064Z,95.34
2022-09-28T01:18:45.550Z,95.54
2022-09-28T01:21:20.418Z,95.46
2022-09-28T01:23:56.334Z,95.67
2022-09-28T01:26:35.062Z,95.73
2022-09-28T01:28:38.299Z,96.02
2022-09-28T01:30:58.180Z,95.91
2022-09-28T01:33:08.857Z,95.83
2022-09-28T01:35:34.445Z,95.89
2022-09-28T01:37:47.467Z,95.99
2022-09-28T01:39:52.290Z,96.45
2022-09-28T01:41:57.987Z,96.19
2022-09-28T01:44:03.438Z,96.01
2022-09-28T01:46:13.841Z,95.94
2022-09-28T01:48:32.537Z,95.72
2022-09-28T01:50:38.839Z,95.83
2022-09-28T01:52:53.957Z,95.43
2022-09-28T01:55:12.042Z,95.63
2022-09-28T01:57:16.594Z,95.92
2022-09-28T01:59:25.079Z,95.71
2022-09-28T02:01:40.792Z,95.39
2022-09-28T02:03:52.724Z,95.34
2022-09-28T02:05:58.223Z,94.94
2022-09-28T02:08:27.063Z,95.31
2022-09-28T02:10:44.488Z,95.12
2022-09-28T02:12:51.763Z,95.74
2022-09-28T02:15:01.888Z,95.78
2022-09-28T02:17:06.723Z,95.65
2022-09-28T02:19:14.125Z,95.09
2022-09-28T02:21:40.275Z,95.34
2022-09-28T02:23:56.696Z,95.32
2022-09-28T02:26:06.847Z,95.52
2022-09-28T02:28:13.523Z,95.24
2022-09-28T02:30:18.110Z,95.65
2022-09-28T02:32:20.818Z,95.28
2022-09-28T02:34:23.435Z,95.41
2022-09-28T02:36:27.733Z,95.57
2022-09-28T02:38:33.377Z,95.79
2022-09-28T02:40:38.138Z,95.70
2022-09-28T02:43:24.404Z,95.66
2022-09-28T02:45:48.108Z,95.39
2022-09-28T02:48:43.765Z,95.40
2022-09-28T02:50:55.496Z,95.33
2022-09-28T02:53:10.073Z,95.22
2022-09-28T02:55:43.744Z,95.66
2022-09-28T02:58:11.114Z,96.04
2022-09-28T03:00:19.443Z,96.12
2022-09-28T03:02:28.075Z,95.93
2022-09-28T03:04:54.128Z,95.99
2022-09-28T03:07:06.267Z,95.87
2022-09-28T03:09:20.914Z,96.10
2022-09-28T03:11:31.008Z,96.48
2022-09-28T03:13:34.709Z,96.56
2022-09-28T03:15:37.489Z,96.27
2022-09-28T03:17:40.585Z,96.44
2022-09-28T03:19:43.167Z,96.63
2022-09-28T03:21:45.758Z,96.41
2022-09-28T03:23:48.298Z,96.40
2022-09-28T03:25:50.834Z,96.75
2022-09-28T03:27:53.497Z,96.91
2022-09-28T03:29:56.091Z,96.88
2022-09-28T03:31:58.747Z,96.40
2022-09-28T03:34:01.325Z,97.05
2022-09-28T03:36:04.112Z,97.16
2022-09-28T03:38:06.774Z,96.62
2022-09-28T03:40:09.795Z,96.43
2022-09-28T03:42:13.656Z,96.74
2022-09-28T03:44:16.349Z,96.51
2022-09-28T03:46:18.967Z,96.66
2022-09-28T03:48:31.237Z,96.16
2022-09-28T03:50:34.858Z,96.21
2022-09-28T03:52:37.445Z,96.73
2022-09-28T03:54:40.498Z,96.85
2022-09-28T03:56:43.013Z,96.65
2022-09-28T03:58:45.540Z,96.53
2022-09-28T04:00:49.171Z,96.20
2022-09-28T04:02:51.699Z,96.40
2022-09-28T04:04:54.322Z,95.89
2022-09-28T04:06:56.846Z,95.91
2022-09-28T04:08:59.436Z,95.74
2022-09-28T04:11:02.603Z,95.73
2022-09-28T04:13:05.421Z,95.53
2022-09-28T04:15:08.387Z,95.38
2022-09-28T04:17:10.958Z,95.51
2022-09-28T04:19:14.289Z,95.74
2022-09-28T04:21:19.762Z,96.14
2022-09-28T04:23:22.398Z,95.85
2022-09-28T04:25:24.967Z,95.94
2022-09-28T04:27:46.222Z,95.92
2022-09-28T04:29:48.811Z,95.62
2022-09-28T04:31:52.822Z,95.29
2022-09-28T04:33:57.289Z,95.14
2022-09-28T04:36:00.824Z,95.25
2022-09-28T04:38:03.433Z,95.42
2022-09-28T04:40:06.845Z,95.42
2022-09-28T04:42:11.269Z,95.90
2022-09-28T04:44:13.897Z,96.01
2022-09-28T04:46:16.813Z,95.66
2022-09-28T04:48:19.437Z,95.17
2022-09-28T04:50:22.106Z,95.37
2022-09-28T04:52:24.610Z,95.60
2022-09-28T04:54:27.127Z,95.42
2022-09-28T04:56:29.684Z,95.91
2022-09-28T04:58:33.063Z,95.65
2022-09-28T05:00:35.898Z,96.06
2022-09-28T05:02:39.234Z,96.59
2022-09-28T05:04:41.910Z,97.00
2022-09-28T05:06:44.866Z,96.77
2022-09-28T05:08:47.805Z,96.97
2022-09-28T05:11:01.181Z,96.96
2022-09-28T05:13:04.050Z,97.75
2022-09-28T05:15:07.063Z,97.46
2022-09-28T05:17:10.595Z,96.99
2022-09-28T05:19:13.264Z,97.48
2022-09-28T05:21:16.632Z,97.23
2022-09-28T05:23:19.201Z,97.72
2022-09-28T05:25:21.853Z,97.84
2022-09-28T05:27:24.387Z,98.37
2022-09-28T05:29:30.156Z,97.96
2022-09-28T05:31:35.067Z,98.87
2022-09-28T05:33:38.387Z,98.68
2022-09-28T05:35:41.052Z,98.73
2022-09-28T05:37:44.037Z,98.23
2022-09-28T05:39:46.814Z,98.49
2022-09-28T05:41:49.745Z,98.28
2022-09-28T05:43:52.760Z,98.42
2022-09-28T05:45:56.018Z,97.94
2022-09-28T05:47:58.814Z,98.01
2022-09-28T05:50:01.514Z,98.26
2022-09-28T05:52:04.155Z,98.09
2022-09-28T05:54:06.998Z,98.60
2022-09-28T05:56:09.657Z,98.58
2022-09-28T05:58:12.340Z,98.89
2022-09-28T06:00:15.156Z,99.14
2022-09-28T06:02:17.858Z,99.72
2022-09-28T06:04:21.087Z,99.56
2022-09-28T06:06:23.689Z,99.32
2022-09-28T06:08:26.268Z,99.29
2022-09-28T06:10:29.421Z,99.40
2022-09-28T06:12:34.248Z,99.44
2022-09-28T06:14:36.829Z,99.72
2022-09-28T06:16:43.783Z,100.00
2022-09-28T06:18:46.744Z,99.93
2022-09-28T06:20:49.366Z,99.61
2022-09-28T06:22:55.436Z,99.65
2022-09-28T06:24:58.094Z,100.00
2022-09-28T06:27:00.657Z,100.00
2022-09-28T06:29:03.564Z,100.00
2022-09-28T06:31:06.292Z,99.78
2022-09-28T06:33:12.950Z,99.97
2022-09-28T06:35:15.650Z,100.00
2022-09-28T06:37:18.325Z,100.00
2022-09-28T06:39:20.898Z,100.00
2022-09-28T06:41:23.643Z,100.00
2022-09-28T06:43:26.222Z,100.00
2022-09-28T06:45:30.366Z,100.00
2022-09-28T06:47:33.695Z,100.00
2022-09-28T06:49:36.199Z,100.00
2022-09-28T06:51:38.765Z,100.00
2022-09-28T06:53:41.368Z,100.00
2022-09-28T06:55:48.393Z,100.00
2022-09-28T06:57:59.372Z,100.00
2022-09-28T07:00:02.167Z,100.00
2022-09-28T07:02:08.157Z,100.00
2022-09-28T07:04:11.019Z,100.00
2022-09-28T07:06:13.667Z,100.00
2022-09-28T07:08:17.691Z,100.00
2022-09-28T07:10:20.324Z,100.00
2022-09-28T07:12:26.323Z,100.00
2022-09-28T07:14:44.194Z,100.00
2022-09-28T07:17:10.761Z,100.00
2022-09-28T07:19:14.641Z,100.00
2022-09-28T07:21:27.556Z,100.00
2022-09-28T07:23:33.116Z,100.00
2022-09-28T07:25:41.193Z,100.00
2022-09-28T07:27:43.831Z,100.00
2022-09-28T07:29:46.559Z,100.00
2022-09-28T07:31:49.083Z,100.00
2022-09-28T07:33:52.133Z,100.00
2022-09-28T07:35:56.092Z,100.00
2022-09-28T07:38:04.381Z,100.00
2022-09-28T07:40:27.586Z,100.00
2022-09-28T07:42:31.149Z,100.00
2022-09-28T07:44:33.892Z,100.00
2022-09-28T07:46:37.254Z,100.00
2022-09-28T07:48:43.730Z,100.00
2022-09-28T07:50:57.400Z,100.00
2022-09-28T07:53:00.736Z,100.00
2022-09-28T07:55:07.175Z,100.00
2022-09-28T07:57:10.096Z,100.00
2022-09-28T07:59:13.903Z,100.00
2022-09-28T08:01:17.773Z,100.00
2022-09-28T08:03:22.911Z,100.00
2022-09-28T08:05:25.851Z,100.00
2022-09-28T08:07:28.467Z,100.00
2022-09-28T08:09:31.110Z,100.00
2022-09-28T08:11:33.680Z,100.00
2022-09-28T08:13:37.526Z,100.00
2022-09-28T08:15:40.058Z,100.00
2022-09-28T08:17:47.143Z,100.00
2022-09-28T08:20:08.116Z,100.00
2022-09-28T08:22:10.726Z,100.00
2022-09-28T08:24:15.659Z,100.00
2022-09-28T08:26:18.343Z,100.00
2022-09-28T08:28:22.863Z,100.00
2022-09-28T08:30:25.545Z,100.00
2022-09-28T08:32:28.418Z,100.00
2022-09-28T08:34:31.010Z,100.00
2022-09-28T08:36:34.028Z,100.00
2022-09-28T08:38:36.728Z,100.00
2022-09-28T08:41:26.940Z,100.00
2022-09-28T08:43:54.386Z,100.00
2022-09-28T08:45:59.437Z,100.00
2022-09-28T08:48:37.714Z,100.00
2022-09-28T08:50:51.786Z,100.00
2022-09-28T08:52:59.860Z,100.00
2022-09-28T08:55:11.560Z,100.00
2022-09-28T08:57:36.284Z,100.00
2022-09-28T09:00:00.545Z,100.00
2022-09-28T09:02:04.988Z,100.00
2022-09-28T09:04:08.368Z,100.00
2022-09-28T09:06:31.958Z,100.00
2022-09-28T09:08:40.252Z,100.00
2022-09-28T09:10:53.752Z,100.00
2022-09-28T09:13:21.062Z,100.00
2022-09-28T09:15:26.267Z,100.00
2022-09-28T09:17:51.407Z,100.00
2022-09-28T09:19:59.324Z,100.00
2022-09-28T09:22:17.785Z,100.00
2022-09-28T09:24:29.705Z,100.00
2022-09-28T09:26:39.410Z,100.00
2022-09-28T09:28:48.279Z,100.00
2022-09-28T09:31:22.449Z,100.00
2022-09-28T09:33:39.687Z,100.00
2022-09-28T09:36:00.871Z,100.00
2022-09-28T09:38:22.209Z,100.00
2022-09-28T09:40:53.901Z,100.00
2022-09-28T09:43:17.675Z,100.00
2022-09-28T09:45:45.483Z,100.00
2022-09-28T09:48:03.845Z,100.00
2022-09-28T09:50:18.215Z,100.00
2022-09-28T09:52:45.337Z,100.00
2022-09-28T09:55:15.019Z,100.00
2022-09-28T09:57:26.830Z,100.00
2022-09-28T09:59:37.533Z,100.00
2022-09-28T10:01:43.158Z,100.00
2022-09-28T10:03:48.542Z,100.00
2022-09-28T10:06:03.984Z,100.00
2022-09-28T10:08:09.195Z,100.00
2022-09-28T10:10:25.619Z,100.00
2022-09-28T10:12:29.283Z,100.00
2022-09-28T10:14:31.871Z,100.00
2022-09-28T10:16:36.036Z,100.00
2022-09-28T10:18:39.106Z,100.00
2022-09-28T10:20:45.158Z,100.00
2022-09-28T10:22:48.201Z,100.00
2022-09-28T10:24:57.688Z,100.00
2022-09-28T10:27:07.856Z,100.00
2022-09-28T10:29:21.448Z,100.00
2022-09-28T10:31:43.391Z,100.00
2022-09-28T10:33:45.960Z,100.00
2022-09-28T10:35:48.902Z,100.00
2022-09-28T10:37:55.358Z,100.00
2022-09-28T10:39:58.358Z,100.00
2022-09-28T10:42:04.537Z,100.00
2022-09-28T10:44:17.178Z,100.00
2022-09-28T10:46:24.362Z,100.00
2022-09-28T10:48:28.734Z,100.00
2022-09-28T10:50:31.368Z,100.00
2022-09-28T10:52:42.340Z,100.00
2022-09-28T10:54:53.700Z,100.00
2022-09-28T10:56:58.341Z,100.00
2022-09-28T10:59:00.863Z,100.00
2022-09-28T11:01:18.880Z,100.00
2022-09-28T11:03:29.873Z,100.00
2022-09-28T11:05:34.124Z,100.00
2022-09-28T11:07:46.751Z,100.00
2022-09-28T11:09:50.769Z,100.00
2022-09-28T11:11:53.526Z,100.00
2022-09-28T11:14:03.856Z,100.00
2022-09-28T11:16:07.310Z,100.00
2022-09-28T11:18:31.705Z,100.00
2022-09-28T11:20:36.116Z,100.00
2022-09-28T11:22:44.926Z,100.00
2022-09-28T11:24:50.889Z,100.00
2022-09-28T11:26:57.199Z,100.00
2022-09-28T11:28:59.879Z,100.00
2022-09-28T11:31:05.011Z,100.00
2022-09-28T11:33:15.161Z,100.00
2022-09-28T11:35:33.126Z,100.00
2022-09-28T11:38:00.727Z,100.00
2022-09-28T11:40:27.564Z,100.00
2022-09-28T11:42:57.612Z,100.00
2022-09-28T11:45:24.699Z,100.00
2022-09-28T11:47:47.526Z,100.00
2022-09-28T11:50:22.929Z,100.00
2022-09-28T11:52:53.054Z,100.00
2022-09-28T11:55:02.180Z,100.00
2022-09-28T11:57:15.074Z,100.00
2022-09-28T11:59:18.587Z,100.00
2022-09-28T12:01:31.410Z,100.00
2022-09-28T12:03:44.116Z,100.00
2022-09-28T12:06:00.365Z,100.00
2022-09-28T12:08:30.697Z,100.00
2022-09-28T12:10:38.127Z,100.00
2022-09-28T12:12:49.821Z,100.00
2022-09-28T12:16:17.206Z,100.00
2022-09-28T12:18:19.536Z,100.00
2022-09-28T12:20:30.749Z,100.00
2022-09-28T12:22:40.934Z,100.00
2022-09-28T12:24:49.268Z,100.00
2022-09-28T12:26:58.544Z,100.00
2022-09-28T12:29:12.143Z,100.00
2022-09-28T12:31:39.041Z,100.00
2022-09-28T12:33:48.333Z,100.00
2022-09-28T12:36:30.390Z,100.00
2022-09-28T12:39:18.625Z,100.00
2022-09-28T12:41:42.601Z,100.00
2022-09-28T12:44:04.114Z,100.00
2022-09-28T12:46:28.968Z,100.00
2022-09-28T12:48:42.853Z,100.00
2022-09-28T12:51:12.776Z,100.00
2022-09-28T12:53:39.240Z,100.00
2022-09-28T12:56:01.211Z,100.00
2022-09-28T12:58:28.043Z,100.00
2022-09-28T13:00:59.739Z,100.00
2022-09-28T13:03:13.495Z,100.00
2022-09-28T13:05:36.282Z,100.00
2022-09-28T13:08:00.963Z,100.00
2022-09-28T13:10:25.841Z,100.00
2022-09-28T13:12:57.653Z,100.00
2022-09-28T13:15:28.995Z,100.00
2022-09-28T13:18:02.854Z,100.00
2022-09-28T13:20:23.496Z,100.00
2022-09-28T13:22:34.619Z,100.00
2022-09-28T13:24:44.487Z,100.00
2022-09-28T13:26:48.159Z,100.00
2022-09-28T13:29:03.689Z,100.00
2022-09-28T13:31:07.492Z,100.00
2022-09-28T13:33:35.874Z,100.00
2022-09-28T13:35:44.141Z,100.00
2022-09-28T13:38:18.626Z,100.00
2022-09-28T13:40:59.684Z,100.00
2022-09-28T13:43:26.520Z,100.00
2022-09-28T13:45:47.141Z,100.00
2022-09-28T13:47:56.863Z,100.00
2022-09-28T13:50:16.823Z,100.00
2022-09-28T13:52:43.653Z,100.00
2022-09-28T13:55:22.306Z,100.00
2022-09-28T13:57:47.821Z,100.00
2022-09-28T13:59:54.384Z,100.00
2022-09-28T14:02:21.140Z,100.00
2022-09-28T14:04:46.733Z,100.00
2022-09-28T14:07:08.805Z,100.00
2022-09-28T14:09:14.210Z,100.00
2022-09-28T14:11:55.765Z,100.00
2022-09-28T14:14:24.430Z,100.00
2022-09-28T14:16:32.300Z,100.00
2022-09-28T14:18:36.702Z,100.00
2022-09-28T14:20:47.566Z,100.00
2022-09-28T14:23:01.019Z,100.00
2022-09-28T14:25:09.388Z,100.00
2022-09-28T14:27:34.935Z,100.00
2022-09-28T14:29:39.546Z,100.00
2022-09-28T14:31:46.002Z,100.00
2022-09-28T14:33:59.322Z,100.00
2022-09-28T14:36:07.933Z,100.00
2022-09-28T14:38:36.691Z,100.00
2022-09-28T14:41:10.970Z,100.00
2022-09-28T14:43:36.139Z,100.00
2022-09-28T14:45:39.715Z,100.00
2022-09-28T14:48:11.833Z,100.00
2022-09-28T14:50:27.739Z,100.00
2022-09-28T14:52:43.622Z,100.00
2022-09-28T14:54:54.676Z,100.00
2022-09-28T14:57:08.948Z,100.00
2022-09-28T14:59:22.446Z,100.00
2022-09-28T15:01:26.697Z,100.00
2022-09-28T15:03:33.302Z,100.00
2022-09-28T15:05:44.190Z,100.00
2022-09-28T15:07:52.374Z,100.00
2022-09-28T15:09:57.292Z,100.00
2022-09-28T15:12:03.735Z,100.00
2022-09-28T15:14:08.505Z,100.00
2022-09-28T15:16:15.649Z,100.00
2022-09-28T15:18:43.968Z,100.00
2022-09-28T15:20:49.153Z,100.00
2022-09-28T15:22:58.089Z,100.00
2022-09-28T15:25:03.058Z,100.00
2022-09-28T15:27:19.178Z,100.00
2022-09-28T15:29:23.265Z,100.00
2022-09-28T15:31:28.639Z,100.00
2022-09-28T15:33:54.066Z,100.00
2022-09-28T15:36:02.173Z,100.00
2022-09-28T15:38:04.936Z,100.00
2022-09-28T15:40:15.426Z,100.00
2022-09-28T15:42:19.169Z,100.00
2022-09-28T15:44:35.430Z,100.00
2022-09-28T15:46:41.620Z,100.00
2022-09-28T15:48:55.596Z,100.00
2022-09-28T15:51:12.057Z,100.00
2022-09-28T15:53:18.990Z,100.00
2022-09-28T15:55:28.676Z,100.00
2022-09-28T15:57:37.097Z,100.00
2022-09-28T15:59:41.222Z,100.00
2022-09-28T16:01:44.957Z,100.00
2022-09-28T16:03:47.628Z,100.00
2022-09-28T16:05:51.858Z,100.00
2022-09-28T16:07:56.267Z,100.00
2022-09-28T16:10:03.150Z,100.00
2022-09-28T16:12:11.648Z,100.00
2022-09-28T16:14:21.326Z,100.00
2022-09-28T16:16:30.996Z,100.00
2022-09-28T16:18:38.465Z,100.00
2022-09-28T16:20:42.767Z,100.00
2022-09-28T16:22:45.854Z,100.00
2022-09-28T16:24:56.420Z,100.00
2022-09-28T16:27:05.073Z,100.00
2022-09-28T16:29:33.058Z,100.00
2022-09-28T16:31:37.411Z,100.00
2022-09-28T16:33:52.633Z,100.00
2022-09-28T16:35:55.533Z,100.00
2022-09-28T16:38:15.701Z,100.00
2022-09-28T16:40:18.336Z,100.00
2022-09-28T16:42:20.949Z,100.00
2022-09-28T16:44:26.753Z,100.00
2022-09-28T16:46:37.496Z,100.00
2022-09-28T16:48:48.949Z,100.00
2022-09-28T16:50:51.558Z,100.00
2022-09-28T16:53:30.011Z,100.00
2022-09-28T16:55:41.198Z,100.00
2022-09-28T16:57:45.697Z,100.00
2022-09-28T16:59:48.318Z,100.00
2022-09-28T17:01:51.169Z,100.00
2022-09-28T17:03:54.250Z,100.00
2022-09-28T17:05:57.247Z,100.00
2022-09-28T17:08:02.336Z,100.00
2022-09-28T17:10:15.658Z,100.00
2022-09-28T17:12:29.115Z,100.00
2022-09-28T17:14:33.010Z,100.00
2022-09-28T17:17:06.141Z,100.00
2022-09-28T17:19:01.014Z,100.00
2022-09-28T17:21:06.076Z,100.00
2022-09-28T17:23:08.767Z,100.00
2022-09-28T17:25:12.805Z,100.00
2022-09-28T17:27:19.765Z,100.00
2022-09-28T17:29:22.503Z,100.00
2022-09-28T17:31:26.205Z,100.00
2022-09-28T17:33:29.739Z,100.00
2022-09-28T17:35:34.138Z,100.00
2022-09-28T17:37:41.111Z,100.00
2022-09-28T17:39:43.718Z,100.00
2022-09-28T17:41:46.311Z,100.00
2022-09-28T17:43:49.542Z,100.00
2022-09-28T17:45:52.338Z,100.00
2022-09-28T17:47:56.041Z,100.00
2022-09-28T17:49:58.746Z,100.00
2022-09-28T17:52:01.802Z,100.00
2022-09-28T17:54:06.762Z,100.00
2022-09-28T17:56:10.061Z,100.00
2022-09-28T17:58:17.667Z,100.00
2022-09-28T18:00:20.465Z,100.00
2022-09-28T18:02:23.929Z,100.00
2022-09-28T18:04:50.301Z,100.00
2022-09-28T18:06:49.177Z,100.00
2022-09-28T18:08:51.773Z,100.00
2022-09-28T18:10:54.960Z,100.00
2022-09-28T18:12:57.490Z,100.00
2022-09-28T18:15:02.974Z,100.00
2022-09-28T18:17:06.272Z,100.00
2022-09-28T18:19:08.969Z,100.00
2022-09-28T18:21:11.754Z,100.00
2022-09-28T18:23:14.379Z,100.00
2022-09-28T18:25:17.287Z,100.00
2022-09-28T18:27:19.920Z,100.00
2022-09-28T18:29:22.545Z,100.00
2022-09-28T18:31:25.166Z,100.00
2022-09-28T18:33:27.792Z,100.00
2022-09-28T18:35:30.504Z,100.00
2022-09-28T18:37:40.057Z,100.00
2022-09-28T18:39:42.648Z,100.00
2022-09-28T18:41:45.258Z,100.00
2022-09-28T18:43:51.142Z,100.00
2022-09-28T18:45:55.443Z,100.00
2022-09-28T18:47:58.238Z,100.00
2022-09-28T18:50:01.068Z,100.00
2022-09-28T18:52:03.866Z,100.00
2022-09-28T18:54:07.769Z,100.00
2022-09-28T18:56:13.141Z,100.00
2022-09-28T18:58:15.727Z,100.00
2022-09-28T19:00:18.897Z,100.00
2022-09-28T19:02:21.782Z,100.00
2022-09-28T19:04:24.586Z,100.00
2022-09-28T19:06:28.052Z,100.00
2022-09-28T19:08:31.110Z,100.00
2022-09-28T19:10:33.762Z,100.00
2022-09-28T19:12:36.335Z,100.00
2022-09-28T19:14:39.194Z,100.00
2022-09-28T19:16:43.322Z,100.00
2022-09-28T19:18:45.904Z,100.00
2022-09-28T19:20:48.484Z,100.00
2022-09-28T19:22:51.098Z,100.00
2022-09-28T19:24:53.781Z,100.00
2022-09-28T19:26:56.816Z,100.00
2022-09-28T19:29:00.213Z,100.00
2022-09-28T19:31:05.490Z,100.00
2022-09-28T19:33:08.023Z,100.00
2022-09-28T19:35:10.606Z,100.00
2022-09-28T19:37:13.165Z,100.00
2022-09-28T19:39:15.969Z,100.00
2022-09-28T19:41:43.075Z,100.00
2022-09-28T19:43:46.413Z,100.00
2022-09-28T19:45:52.286Z,100.00
2022-09-28T19:47:58.737Z,100.00
2022-09-28T19:50:01.972Z,100.00
2022-09-28T19:52:16.161Z,100.00
2022-09-28T19:54:21.150Z,100.00
2022-09-28T19:56:24.120Z,100.00
2022-09-28T19:58:30.905Z,100.00
2022-09-28T20:00:33.530Z,100.00
2022-09-28T20:02:36.151Z,100.00
2022-09-28T20:04:38.841Z,100.00
2022-09-28T20:06:41.861Z,100.00
2022-09-28T20:08:44.844Z,100.00
2022-09-28T20:10:52.539Z,100.00
2022-09-28T20:12:55.121Z,100.00
2022-09-28T20:14:58.025Z,100.00
2022-09-28T20:17:00.670Z,100.00
2022-09-28T20:19:04.917Z,100.00
2022-09-28T20:21:18.154Z,100.00
2022-09-28T20:23:21.822Z,100.00
2022-09-28T20:25:24.421Z,100.00
2022-09-28T20:27:27.238Z,100.00
2022-09-28T20:29:34.875Z,100.00
2022-09-28T20:31:38.036Z,100.00
2022-09-28T20:33:42.814Z,100.00
2022-09-28T20:35:47.014Z,100.00
2022-09-28T20:37:50.393Z,100.00
2022-09-28T20:39:53.685Z,100.00
2022-09-28T20:41:56.414Z,100.00
2022-09-28T20:44:04.114Z,100.00
2022-09-28T20:46:10.570Z,100.00
2022-09-28T20:48:13.346Z,100.00
2022-09-28T20:50:15.905Z,100.00
2022-09-28T20:52:18.784Z,100.00
2022-09-28T20:54:21.907Z,100.00
2022-09-28T20:56:25.833Z,100.00
2022-09-28T20:58:29.124Z,100.00
2022-09-28T21:00:31.682Z,100.00
2022-09-28T21:02:34.236Z,100.00
2022-09-28T21:04:36.952Z,100.00
2022-09-28T21:06:41.524Z,100.00
2022-09-28T21:08:45.980Z,100.00
2022-09-28T21:10:51.094Z,100.00
2022-09-28T21:12:53.579Z,100.00
2022-09-28T21:14:56.179Z,100.00
2022-09-28T21:16:58.764Z,100.00
2022-09-28T21:19:01.371Z,100.00
2022-09-28T21:21:09.570Z,100.00
2022-09-28T21:23:12.227Z,100.00
2022-09-28T21:25:15.066Z,100.00
2022-09-28T21:27:17.606Z,100.00
2022-09-28T21:29:20.117Z,100.00
2022-09-28T21:31:28.470Z,100.00
2022-09-28T21:33:32.046Z,100.00
2022-09-28T21:35:35.838Z,100.00
2022-09-28T21:37:38.346Z,100.00
2022-09-28T21:39:40.836Z,100.00
2022-09-28T21:41:44.256Z,100.00
2022-09-28T21:43:46.792Z,100.00
2022-09-28T21:45:51.230Z,100.00
2022-09-28T21:47:54.322Z,100.00
2022-09-28T21:49:56.844Z,100.00
2022-09-28T21:52:02.223Z,100.00
2022-09-28T21:54:05.051Z,100.00
2022-09-28T21:56:10.710Z,100.00
2022-09-28T21:58:13.299Z,100.00
2022-09-28T22:00:18.181Z,100.00
2022-09-28T22:02:21.735Z,100.00
2022-09-28T22:04:24.326Z,100.00
2022-09-28T22:06:31.078Z,100.00
2022-09-28T22:08:35.398Z,100.00
2022-09-28T22:10:37.972Z,100.00
2022-09-28T22:12:40.495Z,100.00
2022-09-28T22:14:42.989Z,100.00
2022-09-28T22:17:26.815Z,100.00
2022-09-28T22:19:30.993Z,100.00
2022-09-28T22:21:35.115Z,100.00
2022-09-28T22:23:38.786Z,100.00
2022-09-28T22:25:41.197Z,100.00
2022-09-28T22:27:45.463Z,100.00
2022-09-28T22:30:38.546Z,100.00
2022-09-28T22:32:41.274Z,100.00
2022-09-28T22:34:43.766Z,100.00
2022-09-28T22:36:46.386Z,100.00
2022-09-28T22:38:49.506Z,100.00
2022-09-28T22:40:56.367Z,100.00
2022-09-28T22:42:59.042Z,100.00
2022-09-28T22:45:02.388Z,100.00
2022-09-28T22:47:06.498Z,100.00
2022-09-28T22:49:10.709Z,100.00
2022-09-28T22:51:13.962Z,100.00
2022-09-28T22:53:16.630Z,100.00
2022-09-28T22:55:19.334Z,100.00
2022-09-28T22:57:21.957Z,100.00
2022-09-28T22:59:24.619Z,100.00
2022-09-28T23:01:29.831Z,100.00
2022-09-28T23:03:32.642Z,100.00
2022-09-28T23:05:35.327Z,100.00
2022-09-28T23:07:38.871Z,100.00
2022-09-28T23:09:41.477Z,100.00
2022-09-28T23:11:44.027Z,100.00
2022-09-28T23:13:54.028Z,100.00
2022-09-28T23:16:11.802Z,100.00
2022-09-28T23:18:14.424Z,100.00
2022-09-28T23:20:17.080Z,100.00
2022-09-28T23:22:19.773Z,100.00
2022-09-28T23:24:22.389Z,100.00
2022-09-28T23:26:27.867Z,100.00
2022-09-28T23:28:30.508Z,100.00
2022-09-28T23:30:33.074Z,100.00
2022-09-28T23:32:35.620Z,100.00
2022-09-28T23:34:38.207Z,100.00
2022-09-28T23:36:41.046Z,100.00
2022-09-28T23:38:44.099Z,100.00
2022-09-28T23:40:47.619Z,100.00
2022-09-28T23:42:50.274Z,100.00
2022-09-28T23:44:53.094Z,100.00
2022-09-28T23:46:55.803Z,100.00
2022-09-28T23:48:58.360Z,100.00
2022-09-28T23:51:02.334Z,100.00
2022-09-28T23:53:05.819Z,100.00
2022-09-28T23:55:08.819Z,100.00
2022-09-28T23:57:11.663Z,100.00
2022-09-28T23:59:14.322Z,100.00
